sensor_id;sensor_type;location;lat;lon;timestamp;P1;durP1;ratioP1;P2;durP2;ratioP2
66371;SDS011;53168;51.146;17.120;2022-08-01T00:01:49;6.50;;;5.50;;
66371;SDS011;53168;51.146;17.120;2022-08-01T00:04:23;7.90;;;5.90;;
66371;SDS011;53168;51.146;17.120;2022-08-01T00:06:56;7.60;;;5.60;;
66371;SDS011;53168;51.146;17.120;2022-08-01T00:09:29;8.70;;;5.90;;
66371;SDS011;53168;51.146;17.120;2022-08-01T00:12:03;7.00;;;6.20;;
66371;SDS011;53168;51.146;17.120;2022-08-01T00:14:37;7.20;;;6.10;;
66371;SDS011;53168;51.146;17.120;2022-08-01T00:17:11;7.50;;;6.50;;
66371;SDS011;53168;51.146;17.120;2022-08-01T00:19:44;8.60;;;5.90;;
66371;SDS011;53168;51.146;17.120;2022-08-01T00:22:18;7.70;;;5.80;;
66371;SDS011;53168;51.146;17.120;2022-08-01T00:24:51;7.30;;;5.80;;
66371;SDS011;53168;51.146;17.120;2022-08-01T00:27:28;8.50;;;5.70;;
66371;SDS011;53168;51.146;17.120;2022-08-01T00:30:08;8.90;;;5.70;;
66371;SDS011;53168;51.146;17.120;2022-08-01T00:32:44;7.40;;;5.90;;
66371;SDS011;53168;51.146;17.120;2022-08-01T00:35:19;8.30;;;6.00;;
66371;SDS011;53168;51.146;17.120;2022-08-01T00:37:53;8.90;;;6.00;;
66371;SDS011;53168;51.146;17.120;2022-08-01T00:40:26;7.50;;;6.00;;
66371;SDS011;53168;51.146;17.120;2022-08-01T00:46:02;7.80;;;7.00;;
66371;SDS011;53168;51.146;17.120;2022-08-01T00:48:37;8.10;;;6.20;;
66371;SDS011;53168;51.146;17.120;2022-08-01T00:51:11;7.30;;;6.30;;
66371;SDS011;53168;51.146;17.120;2022-08-01T00:53:49;8.90;;;6.00;;
66371;SDS011;53168;51.146;17.120;2022-08-01T00:56:29;7.60;;;5.80;;
66371;SDS011;53168;51.146;17.120;2022-08-01T00:59:05;6.30;;;5.50;;
66371;SDS011;53168;51.146;17.120;2022-08-01T01:01:57;9.00;;;6.30;;
66371;SDS011;53168;51.146;17.120;2022-08-01T01:04:30;6.80;;;6.00;;
66371;SDS011;53168;51.146;17.120;2022-08-01T01:07:08;10.50;;;7.00;;
66371;SDS011;53168;51.146;17.120;2022-08-01T01:09:52;8.70;;;6.10;;
66371;SDS011;53168;51.146;17.120;2022-08-01T01:12:33;7.20;;;6.00;;
66371;SDS011;53168;51.146;17.120;2022-08-01T01:15:13;9.50;;;6.50;;
66371;SDS011;53168;51.146;17.120;2022-08-01T01:17:58;9.00;;;6.60;;
66371;SDS011;53168;51.146;17.120;2022-08-01T01:20:37;8.40;;;6.60;;
66371;SDS011;53168;51.146;17.120;2022-08-01T01:23:34;10.10;;;6.90;;
66371;SDS011;53168;51.146;17.120;2022-08-01T01:26:26;10.80;;;7.00;;
66371;SDS011;53168;51.146;17.120;2022-08-01T01:29:13;8.60;;;7.20;;
66371;SDS011;53168;51.146;17.120;2022-08-01T01:31:57;7.60;;;6.20;;
66371;SDS011;53168;51.146;17.120;2022-08-01T01:34:39;7.20;;;5.90;;
66371;SDS011;53168;51.146;17.120;2022-08-01T01:37:18;7.60;;;5.80;;
66371;SDS011;53168;51.146;17.120;2022-08-01T01:39:54;9.20;;;6.20;;
66371;SDS011;53168;51.146;17.120;2022-08-01T01:42:30;7.70;;;6.20;;
66371;SDS011;53168;51.146;17.120;2022-08-01T01:45:07;9.60;;;5.90;;
66371;SDS011;53168;51.146;17.120;2022-08-01T01:47:42;7.70;;;6.50;;
66371;SDS011;53168;51.146;17.120;2022-08-01T01:50:21;10.30;;;6.80;;
66371;SDS011;53168;51.146;17.120;2022-08-01T01:52:57;7.30;;;6.00;;
66371;SDS011;53168;51.146;17.120;2022-08-01T01:55:37;6.80;;;5.80;;
66371;SDS011;53168;51.146;17.120;2022-08-01T01:58:21;8.10;;;6.10;;
66371;SDS011;53168;51.146;17.120;2022-08-01T02:00:58;10.10;;;6.50;;
66371;SDS011;53168;51.146;17.120;2022-08-01T02:03:33;8.60;;;6.30;;
66371;SDS011;53168;51.146;17.120;2022-08-01T02:06:09;7.80;;;6.40;;
66371;SDS011;53168;51.146;17.120;2022-08-01T02:08:46;8.50;;;6.80;;
66371;SDS011;53168;51.146;17.120;2022-08-01T02:11:22;8.20;;;6.90;;
66371;SDS011;53168;51.146;17.120;2022-08-01T02:13:57;11.50;;;7.20;;
66371;SDS011;53168;51.146;17.120;2022-08-01T02:16:47;9.50;;;7.40;;
66371;SDS011;53168;51.146;17.120;2022-08-01T02:19:24;9.60;;;7.10;;
66371;SDS011;53168;51.146;17.120;2022-08-01T02:22:07;8.30;;;6.80;;
66371;SDS011;53168;51.146;17.120;2022-08-01T02:25:00;8.40;;;6.50;;
66371;SDS011;53168;51.146;17.120;2022-08-01T02:27:44;11.00;;;6.80;;
66371;SDS011;53168;51.146;17.120;2022-08-01T02:30:39;12.10;;;7.70;;
66371;SDS011;53168;51.146;17.120;2022-08-01T02:36:00;9.90;;;7.20;;
66371;SDS011;53168;51.146;17.120;2022-08-01T02:38:57;9.00;;;7.10;;
66371;SDS011;53168;51.146;17.120;2022-08-01T02:41:38;10.10;;;7.40;;
66371;SDS011;53168;51.146;17.120;2022-08-01T02:44:20;10.50;;;7.00;;
66371;SDS011;53168;51.146;17.120;2022-08-01T02:47:03;9.00;;;6.80;;
66371;SDS011;53168;51.146;17.120;2022-08-01T02:49:41;13.40;;;7.30;;
66371;SDS011;53168;51.146;17.120;2022-08-01T02:52:24;7.60;;;6.60;;
66371;SDS011;53168;51.146;17.120;2022-08-01T02:55:00;8.80;;;7.50;;
66371;SDS011;53168;51.146;17.120;2022-08-01T02:57:35;8.70;;;6.80;;
66371;SDS011;53168;51.146;17.120;2022-08-01T03:00:22;10.60;;;7.30;;
66371;SDS011;53168;51.146;17.120;2022-08-01T03:02:57;10.70;;;7.70;;
66371;SDS011;53168;51.146;17.120;2022-08-01T03:05:32;12.00;;;7.40;;
66371;SDS011;53168;51.146;17.120;2022-08-01T03:08:09;8.60;;;7.30;;
66371;SDS011;53168;51.146;17.120;2022-08-01T03:10:45;11.50;;;7.50;;
66371;SDS011;53168;51.146;17.120;2022-08-01T03:13:20;9.90;;;7.70;;
66371;SDS011;53168;51.146;17.120;2022-08-01T03:15:57;9.10;;;7.50;;
66371;SDS011;53168;51.146;17.120;2022-08-01T03:18:32;10.40;;;7.30;;
66371;SDS011;53168;51.146;17.120;2022-08-01T03:21:09;9.40;;;8.10;;
66371;SDS011;53168;51.146;17.120;2022-08-01T03:23:46;9.10;;;7.30;;
66371;SDS011;53168;51.146;17.120;2022-08-01T03:26:26;10.80;;;7.60;;
66371;SDS011;53168;51.146;17.120;2022-08-01T03:29:05;11.10;;;8.20;;
66371;SDS011;53168;51.146;17.120;2022-08-01T03:31:45;11.10;;;7.70;;
66371;SDS011;53168;51.146;17.120;2022-08-01T03:34:20;9.80;;;7.00;;
66371;SDS011;53168;51.146;17.120;2022-08-01T03:36:59;9.50;;;6.80;;
66371;SDS011;53168;51.146;17.120;2022-08-01T03:39:46;8.70;;;7.80;;
66371;SDS011;53168;51.146;17.120;2022-08-01T03:42:25;10.40;;;7.20;;
66371;SDS011;53168;51.146;17.120;2022-08-01T03:45:07;12.10;;;7.50;;
66371;SDS011;53168;51.146;17.120;2022-08-01T03:47:44;9.20;;;7.10;;
66371;SDS011;53168;51.146;17.120;2022-08-01T03:50:23;8.40;;;6.80;;
66371;SDS011;53168;51.146;17.120;2022-08-01T03:52:59;10.50;;;7.60;;
66371;SDS011;53168;51.146;17.120;2022-08-01T03:55:35;8.90;;;7.20;;
66371;SDS011;53168;51.146;17.120;2022-08-01T03:58:10;10.70;;;7.00;;
66371;SDS011;53168;51.146;17.120;2022-08-01T04:00:44;10.90;;;7.50;;
66371;SDS011;53168;51.146;17.120;2022-08-01T04:03:19;10.00;;;7.60;;
66371;SDS011;53168;51.146;17.120;2022-08-01T04:05:54;9.20;;;6.90;;
66371;SDS011;53168;51.146;17.120;2022-08-01T04:08:36;9.20;;;7.40;;
66371;SDS011;53168;51.146;17.120;2022-08-01T04:11:11;8.50;;;6.20;;
66371;SDS011;53168;51.146;17.120;2022-08-01T04:13:44;10.00;;;7.20;;
66371;SDS011;53168;51.146;17.120;2022-08-01T04:16:18;8.40;;;7.50;;
66371;SDS011;53168;51.146;17.120;2022-08-01T04:18:51;11.70;;;7.50;;
66371;SDS011;53168;51.146;17.120;2022-08-01T04:21:27;14.80;;;7.90;;
66371;SDS011;53168;51.146;17.120;2022-08-01T04:24:06;9.30;;;6.70;;
66371;SDS011;53168;51.146;17.120;2022-08-01T04:26:43;9.90;;;7.30;;
66371;SDS011;53168;51.146;17.120;2022-08-01T04:29:19;8.50;;;7.00;;
66371;SDS011;53168;51.146;17.120;2022-08-01T04:31:55;8.50;;;6.80;;
66371;SDS011;53168;51.146;17.120;2022-08-01T04:34:33;10.40;;;7.10;;
66371;SDS011;53168;51.146;17.120;2022-08-01T04:37:12;12.70;;;7.00;;
66371;SDS011;53168;51.146;17.120;2022-08-01T04:39:49;11.60;;;7.00;;
66371;SDS011;53168;51.146;17.120;2022-08-01T04:42:26;12.00;;;6.80;;
66371;SDS011;53168;51.146;17.120;2022-08-01T04:45:03;8.40;;;6.30;;
66371;SDS011;53168;51.146;17.120;2022-08-01T04:47:43;9.10;;;6.70;;
66371;SDS011;53168;51.146;17.120;2022-08-01T04:50:18;14.90;;;7.80;;
66371;SDS011;53168;51.146;17.120;2022-08-01T04:53:07;11.70;;;7.50;;
66371;SDS011;53168;51.146;17.120;2022-08-01T04:55:50;11.60;;;7.20;;
66371;SDS011;53168;51.146;17.120;2022-08-01T04:58:24;9.80;;;6.80;;
66371;SDS011;53168;51.146;17.120;2022-08-01T05:01:00;8.70;;;6.50;;
66371;SDS011;53168;51.146;17.120;2022-08-01T05:03:34;7.60;;;6.70;;
66371;SDS011;53168;51.146;17.120;2022-08-01T05:06:08;10.00;;;7.30;;
66371;SDS011;53168;51.146;17.120;2022-08-01T05:08:45;8.30;;;7.00;;
66371;SDS011;53168;51.146;17.120;2022-08-01T05:11:18;7.70;;;6.00;;
66371;SDS011;53168;51.146;17.120;2022-08-01T05:13:55;11.70;;;6.90;;
66371;SDS011;53168;51.146;17.120;2022-08-01T05:16:29;9.80;;;6.60;;
66371;SDS011;53168;51.146;17.120;2022-08-01T05:19:06;10.10;;;6.80;;
66371;SDS011;53168;51.146;17.120;2022-08-01T05:21:40;11.20;;;6.90;;
66371;SDS011;53168;51.146;17.120;2022-08-01T05:24:14;10.10;;;7.00;;
66371;SDS011;53168;51.146;17.120;2022-08-01T05:26:56;7.40;;;6.20;;
66371;SDS011;53168;51.146;17.120;2022-08-01T05:29:32;10.30;;;7.00;;
66371;SDS011;53168;51.146;17.120;2022-08-01T05:32:14;8.90;;;6.40;;
66371;SDS011;53168;51.146;17.120;2022-08-01T05:34:48;9.20;;;6.90;;
66371;SDS011;53168;51.146;17.120;2022-08-01T05:37:23;9.40;;;6.50;;
66371;SDS011;53168;51.146;17.120;2022-08-01T05:40:00;8.70;;;6.40;;
66371;SDS011;53168;51.146;17.120;2022-08-01T05:42:34;6.90;;;5.90;;
66371;SDS011;53168;51.146;17.120;2022-08-01T05:45:09;8.90;;;6.80;;
66371;SDS011;53168;51.146;17.120;2022-08-01T05:47:43;10.70;;;7.30;;
66371;SDS011;53168;51.146;17.120;2022-08-01T05:50:16;7.60;;;6.80;;
66371;SDS011;53168;51.146;17.120;2022-08-01T05:52:50;10.60;;;7.20;;
66371;SDS011;53168;51.146;17.120;2022-08-01T05:55:24;10.70;;;7.20;;
66371;SDS011;53168;51.146;17.120;2022-08-01T05:58:02;11.70;;;7.40;;
66371;SDS011;53168;51.146;17.120;2022-08-01T06:00:36;10.70;;;7.60;;
66371;SDS011;53168;51.146;17.120;2022-08-01T06:03:09;12.90;;;8.10;;
66371;SDS011;53168;51.146;17.120;2022-08-01T06:05:44;8.50;;;7.50;;
66371;SDS011;53168;51.146;17.120;2022-08-01T06:08:18;11.30;;;7.50;;
66371;SDS011;53168;51.146;17.120;2022-08-01T06:10:51;8.40;;;7.10;;
66371;SDS011;53168;51.146;17.120;2022-08-01T06:13:25;9.30;;;7.40;;
66371;SDS011;53168;51.146;17.120;2022-08-01T06:15:59;10.20;;;7.50;;
66371;SDS011;53168;51.146;17.120;2022-08-01T06:18:32;8.90;;;7.40;;
66371;SDS011;53168;51.146;17.120;2022-08-01T06:21:08;12.90;;;7.70;;
66371;SDS011;53168;51.146;17.120;2022-08-01T06:23:41;10.50;;;7.50;;
66371;SDS011;53168;51.146;17.120;2022-08-01T06:26:16;11.10;;;8.20;;
66371;SDS011;53168;51.146;17.120;2022-08-01T06:28:50;8.50;;;7.30;;
66371;SDS011;53168;51.146;17.120;2022-08-01T06:31:23;10.70;;;7.60;;
66371;SDS011;53168;51.146;17.120;2022-08-01T06:34:02;11.00;;;8.10;;
66371;SDS011;53168;51.146;17.120;2022-08-01T06:36:36;11.00;;;8.70;;
66371;SDS011;53168;51.146;17.120;2022-08-01T06:39:09;11.00;;;7.90;;
66371;SDS011;53168;51.146;17.120;2022-08-01T06:41:42;10.00;;;7.70;;
66371;SDS011;53168;51.146;17.120;2022-08-01T06:44:16;11.40;;;8.00;;
66371;SDS011;53168;51.146;17.120;2022-08-01T06:46:50;11.70;;;8.60;;
66371;SDS011;53168;51.146;17.120;2022-08-01T06:49:24;12.10;;;8.20;;
66371;SDS011;53168;51.146;17.120;2022-08-01T06:51:58;9.60;;;8.00;;
66371;SDS011;53168;51.146;17.120;2022-08-01T06:54:34;13.30;;;7.80;;
66371;SDS011;53168;51.146;17.120;2022-08-01T06:57:07;12.70;;;8.10;;
66371;SDS011;53168;51.146;17.120;2022-08-01T06:59:41;12.90;;;8.40;;
66371;SDS011;53168;51.146;17.120;2022-08-01T07:02:24;12.00;;;8.40;;
66371;SDS011;53168;51.146;17.120;2022-08-01T07:04:57;11.10;;;8.00;;
66371;SDS011;53168;51.146;17.120;2022-08-01T07:07:33;13.20;;;8.60;;
66371;SDS011;53168;51.146;17.120;2022-08-01T07:10:09;10.60;;;7.90;;
66371;SDS011;53168;51.146;17.120;2022-08-01T07:12:43;12.30;;;9.20;;
66371;SDS011;53168;51.146;17.120;2022-08-01T07:15:16;13.60;;;8.60;;
66371;SDS011;53168;51.146;17.120;2022-08-01T07:17:52;13.80;;;8.50;;
66371;SDS011;53168;51.146;17.120;2022-08-01T07:20:27;13.90;;;8.80;;
66371;SDS011;53168;51.146;17.120;2022-08-01T07:23:20;16.40;;;8.80;;
66371;SDS011;53168;51.146;17.120;2022-08-01T07:26:05;12.90;;;8.90;;
66371;SDS011;53168;51.146;17.120;2022-08-01T07:28:39;14.20;;;9.00;;
66371;SDS011;53168;51.146;17.120;2022-08-01T07:31:13;13.70;;;9.00;;
66371;SDS011;53168;51.146;17.120;2022-08-01T07:33:47;10.90;;;8.40;;
66371;SDS011;53168;51.146;17.120;2022-08-01T07:36:20;13.20;;;8.90;;
66371;SDS011;53168;51.146;17.120;2022-08-01T07:38:54;11.30;;;8.50;;
66371;SDS011;53168;51.146;17.120;2022-08-01T07:41:30;13.20;;;8.80;;
66371;SDS011;53168;51.146;17.120;2022-08-01T07:44:25;9.30;;;8.10;;
66371;SDS011;53168;51.146;17.120;2022-08-01T07:46:58;11.50;;;8.10;;
66371;SDS011;53168;51.146;17.120;2022-08-01T07:49:32;11.50;;;8.80;;
66371;SDS011;53168;51.146;17.120;2022-08-01T07:52:10;12.30;;;7.20;;
66371;SDS011;53168;51.146;17.120;2022-08-01T07:54:43;10.10;;;7.80;;
66371;SDS011;53168;51.146;17.120;2022-08-01T07:57:22;8.80;;;7.50;;
66371;SDS011;53168;51.146;17.120;2022-08-01T07:59:56;9.40;;;7.70;;
66371;SDS011;53168;51.146;17.120;2022-08-01T08:02:30;9.10;;;7.80;;
66371;SDS011;53168;51.146;17.120;2022-08-01T08:05:04;11.30;;;8.00;;
66371;SDS011;53168;51.146;17.120;2022-08-01T08:07:41;9.50;;;6.60;;
66371;SDS011;53168;51.146;17.120;2022-08-01T08:10:14;10.00;;;8.10;;
66371;SDS011;53168;51.146;17.120;2022-08-01T08:12:48;9.90;;;7.70;;
66371;SDS011;53168;51.146;17.120;2022-08-01T08:15:21;10.10;;;7.80;;
66371;SDS011;53168;51.146;17.120;2022-08-01T08:17:55;9.00;;;8.10;;
66371;SDS011;53168;51.146;17.120;2022-08-01T08:20:28;8.60;;;7.40;;
66371;SDS011;53168;51.146;17.120;2022-08-01T08:23:01;9.40;;;7.60;;
66371;SDS011;53168;51.146;17.120;2022-08-01T08:26:13;9.40;;;7.40;;
66371;SDS011;53168;51.146;17.120;2022-08-01T08:28:46;8.10;;;7.10;;
66371;SDS011;53168;51.146;17.120;2022-08-01T08:31:20;10.60;;;7.80;;
66371;SDS011;53168;51.146;17.120;2022-08-01T08:34:13;9.10;;;7.90;;
66371;SDS011;53168;51.146;17.120;2022-08-01T08:36:48;12.10;;;8.10;;
66371;SDS011;53168;51.146;17.120;2022-08-01T08:39:23;9.00;;;7.90;;
66371;SDS011;53168;51.146;17.120;2022-08-01T08:41:58;9.60;;;7.20;;
66371;SDS011;53168;51.146;17.120;2022-08-01T08:44:33;8.10;;;7.30;;
66371;SDS011;53168;51.146;17.120;2022-08-01T08:47:14;9.80;;;8.20;;
66371;SDS011;53168;51.146;17.120;2022-08-01T08:49:52;9.40;;;8.40;;
66371;SDS011;53168;51.146;17.120;2022-08-01T08:52:28;9.70;;;8.00;;
66371;SDS011;53168;51.146;17.120;2022-08-01T08:55:04;10.80;;;6.90;;
66371;SDS011;53168;51.146;17.120;2022-08-01T08:57:40;9.10;;;7.70;;
66371;SDS011;53168;51.146;17.120;2022-08-01T09:00:16;8.00;;;7.10;;
66371;SDS011;53168;51.146;17.120;2022-08-01T09:02:51;9.10;;;7.90;;
66371;SDS011;53168;51.146;17.120;2022-08-01T09:05:26;7.90;;;7.10;;
66371;SDS011;53168;51.146;17.120;2022-08-01T09:08:09;8.60;;;7.30;;
66371;SDS011;53168;51.146;17.120;2022-08-01T09:10:45;10.70;;;7.80;;
66371;SDS011;53168;51.146;17.120;2022-08-01T09:13:19;7.50;;;6.70;;
66371;SDS011;53168;51.146;17.120;2022-08-01T09:15:54;7.60;;;6.80;;
66371;SDS011;53168;51.146;17.120;2022-08-01T09:18:32;10.00;;;7.90;;
66371;SDS011;53168;51.146;17.120;2022-08-01T09:21:15;8.10;;;7.30;;
66371;SDS011;53168;51.146;17.120;2022-08-01T09:23:51;7.20;;;6.50;;
66371;SDS011;53168;51.146;17.120;2022-08-01T09:26:31;10.00;;;7.40;;
66371;SDS011;53168;51.146;17.120;2022-08-01T09:29:07;7.80;;;6.90;;
66371;SDS011;53168;51.146;17.120;2022-08-01T09:32:08;7.10;;;6.20;;
66371;SDS011;53168;51.146;17.120;2022-08-01T09:34:46;6.90;;;6.20;;
66371;SDS011;53168;51.146;17.120;2022-08-01T09:37:30;9.40;;;7.20;;
66371;SDS011;53168;51.146;17.120;2022-08-01T09:40:09;8.10;;;6.10;;
66371;SDS011;53168;51.146;17.120;2022-08-01T09:42:42;7.30;;;6.30;;
66371;SDS011;53168;51.146;17.120;2022-08-01T09:45:34;7.30;;;6.60;;
66371;SDS011;53168;51.146;17.120;2022-08-01T09:48:13;8.00;;;7.00;;
66371;SDS011;53168;51.146;17.120;2022-08-01T09:50:48;6.10;;;5.60;;
66371;SDS011;53168;51.146;17.120;2022-08-01T09:53:24;7.60;;;6.10;;
66371;SDS011;53168;51.146;17.120;2022-08-01T09:56:11;5.80;;;5.10;;
66371;SDS011;53168;51.146;17.120;2022-08-01T09:58:53;13.30;;;6.90;;
66371;SDS011;53168;51.146;17.120;2022-08-01T10:01:44;8.90;;;6.70;;
66371;SDS011;53168;51.146;17.120;2022-08-01T10:04:20;5.20;;;4.70;;
66371;SDS011;53168;51.146;17.120;2022-08-01T10:07:05;7.20;;;6.50;;
66371;SDS011;53168;51.146;17.120;2022-08-01T10:09:42;7.30;;;6.20;;
66371;SDS011;53168;51.146;17.120;2022-08-01T10:12:18;7.30;;;6.60;;
66371;SDS011;53168;51.146;17.120;2022-08-01T10:14:55;8.30;;;6.10;;
66371;SDS011;53168;51.146;17.120;2022-08-01T10:17:29;10.30;;;6.80;;
66371;SDS011;53168;51.146;17.120;2022-08-01T10:20:22;7.90;;;6.20;;
66371;SDS011;53168;51.146;17.120;2022-08-01T10:23:02;8.20;;;6.10;;
66371;SDS011;53168;51.146;17.120;2022-08-01T10:25:40;6.70;;;6.00;;
66371;SDS011;53168;51.146;17.120;2022-08-01T10:28:17;7.10;;;6.40;;
66371;SDS011;53168;51.146;17.120;2022-08-01T10:30:54;6.80;;;5.90;;
66371;SDS011;53168;51.146;17.120;2022-08-01T10:33:30;7.20;;;6.50;;
66371;SDS011;53168;51.146;17.120;2022-08-01T10:36:22;7.00;;;6.10;;
66371;SDS011;53168;51.146;17.120;2022-08-01T10:38:58;7.10;;;5.70;;
66371;SDS011;53168;51.146;17.120;2022-08-01T10:41:32;9.60;;;6.60;;
66371;SDS011;53168;51.146;17.120;2022-08-01T13:20:41;6.00;;;5.50;;
66371;SDS011;53168;51.146;17.120;2022-08-01T13:23:21;5.50;;;5.00;;
66371;SDS011;53168;51.146;17.120;2022-08-01T13:26:15;5.20;;;4.70;;
66371;SDS011;53168;51.146;17.120;2022-08-01T13:29:05;5.70;;;5.20;;
66371;SDS011;53168;51.146;17.120;2022-08-01T13:31:40;5.20;;;4.70;;
66371;SDS011;53168;51.146;17.120;2022-08-01T13:34:14;6.10;;;5.50;;
66371;SDS011;53168;51.146;17.120;2022-08-01T13:36:48;5.70;;;5.20;;
66371;SDS011;53168;51.146;17.120;2022-08-01T13:39:21;5.50;;;5.00;;
66371;SDS011;53168;51.146;17.120;2022-08-01T13:42:16;5.80;;;5.30;;
66371;SDS011;53168;51.146;17.120;2022-08-01T13:44:50;6.30;;;4.80;;
66371;SDS011;53168;51.146;17.120;2022-08-01T13:47:24;5.30;;;4.80;;
66371;SDS011;53168;51.146;17.120;2022-08-01T13:50:02;5.90;;;5.30;;
66371;SDS011;53168;51.146;17.120;2022-08-01T13:52:36;5.80;;;5.30;;
66371;SDS011;53168;51.146;17.120;2022-08-01T13:55:12;5.10;;;4.70;;
66371;SDS011;53168;51.146;17.120;2022-08-01T13:57:46;6.10;;;5.60;;
66371;SDS011;53168;51.146;17.120;2022-08-01T14:00:21;6.00;;;5.40;;
66371;SDS011;53168;51.146;17.120;2022-08-01T14:02:54;5.60;;;5.00;;
66371;SDS011;53168;51.146;17.120;2022-08-01T14:05:29;5.00;;;4.50;;
66371;SDS011;53168;51.146;17.120;2022-08-01T14:08:03;5.70;;;5.10;;
66371;SDS011;53168;51.146;17.120;2022-08-01T14:10:48;5.40;;;4.90;;
66371;SDS011;53168;51.146;17.120;2022-08-01T14:13:22;5.60;;;4.70;;
66371;SDS011;53168;51.146;17.120;2022-08-01T14:16:02;5.50;;;5.00;;
66371;SDS011;53168;51.146;17.120;2022-08-01T14:18:36;5.60;;;4.80;;
66371;SDS011;53168;51.146;17.120;2022-08-01T14:21:13;4.40;;;3.80;;
66371;SDS011;53168;51.146;17.120;2022-08-01T14:23:47;3.80;;;3.50;;
66371;SDS011;53168;51.146;17.120;2022-08-01T14:26:24;3.90;;;3.60;;
66371;SDS011;53168;51.146;17.120;2022-08-01T14:28:58;4.30;;;2.90;;
66371;SDS011;53168;51.146;17.120;2022-08-01T14:31:31;3.90;;;3.60;;
66371;SDS011;53168;51.146;17.120;2022-08-01T14:34:11;4.80;;;3.60;;
66371;SDS011;53168;51.146;17.120;2022-08-01T14:36:44;4.10;;;3.70;;
66371;SDS011;53168;51.146;17.120;2022-08-01T14:39:21;6.20;;;3.50;;
66371;SDS011;53168;51.146;17.120;2022-08-01T14:42:02;4.30;;;3.90;;
66371;SDS011;53168;51.146;17.120;2022-08-01T14:44:38;4.90;;;4.30;;
66371;SDS011;53168;51.146;17.120;2022-08-01T14:47:19;5.50;;;3.80;;
66371;SDS011;53168;51.146;17.120;2022-08-01T14:49:54;4.40;;;4.00;;
66371;SDS011;53168;51.146;17.120;2022-08-01T14:52:27;4.40;;;4.00;;
66371;SDS011;53168;51.146;17.120;2022-08-01T14:55:01;3.80;;;3.40;;
66371;SDS011;53168;51.146;17.120;2022-08-01T14:57:36;4.10;;;3.70;;
66371;SDS011;53168;51.146;17.120;2022-08-01T15:00:12;4.60;;;3.40;;
66371;SDS011;53168;51.146;17.120;2022-08-01T15:02:47;4.30;;;3.40;;
66371;SDS011;53168;51.146;17.120;2022-08-01T15:05:22;3.90;;;2.90;;
66371;SDS011;53168;51.146;17.120;2022-08-01T15:07:55;3.40;;;2.80;;
66371;SDS011;53168;51.146;17.120;2022-08-01T15:10:29;3.30;;;3.00;;
66371;SDS011;53168;51.146;17.120;2022-08-01T15:13:03;3.30;;;3.00;;
66371;SDS011;53168;51.146;17.120;2022-08-01T15:15:36;3.10;;;2.60;;
66371;SDS011;53168;51.146;17.120;2022-08-01T15:18:09;5.20;;;2.90;;
66371;SDS011;53168;51.146;17.120;2022-08-01T15:20:43;3.20;;;2.90;;
66371;SDS011;53168;51.146;17.120;2022-08-01T15:23:17;3.80;;;2.80;;
66371;SDS011;53168;51.146;17.120;2022-08-01T15:25:51;3.40;;;2.90;;
66371;SDS011;53168;51.146;17.120;2022-08-01T15:28:24;3.60;;;2.80;;
66371;SDS011;53168;51.146;17.120;2022-08-01T15:31:01;3.60;;;2.70;;
66371;SDS011;53168;51.146;17.120;2022-08-01T15:33:34;3.40;;;3.00;;
66371;SDS011;53168;51.146;17.120;2022-08-01T15:36:08;3.30;;;2.90;;
66371;SDS011;53168;51.146;17.120;2022-08-01T15:38:44;3.40;;;2.80;;
66371;SDS011;53168;51.146;17.120;2022-08-01T15:41:18;3.00;;;2.50;;
66371;SDS011;53168;51.146;17.120;2022-08-01T15:43:51;3.30;;;2.30;;
66371;SDS011;53168;51.146;17.120;2022-08-01T15:46:25;6.10;;;2.50;;
66371;SDS011;53168;51.146;17.120;2022-08-01T15:49:03;4.90;;;2.30;;
66371;SDS011;53168;51.146;17.120;2022-08-01T15:51:37;3.10;;;2.10;;
66371;SDS011;53168;51.146;17.120;2022-08-01T15:54:11;4.40;;;2.50;;
66371;SDS011;53168;51.146;17.120;2022-08-01T15:56:45;4.90;;;2.10;;
66371;SDS011;53168;51.146;17.120;2022-08-01T15:59:18;2.30;;;2.10;;
66371;SDS011;53168;51.146;17.120;2022-08-01T16:01:52;9.80;;;2.30;;
66371;SDS011;53168;51.146;17.120;2022-08-01T16:04:26;3.90;;;2.20;;
66371;SDS011;53168;51.146;17.120;2022-08-01T16:07:00;2.60;;;1.80;;
66371;SDS011;53168;51.146;17.120;2022-08-01T16:09:34;3.60;;;1.60;;
66371;SDS011;53168;51.146;17.120;2022-08-01T16:12:08;2.60;;;1.40;;
66371;SDS011;53168;51.146;17.120;2022-08-01T16:14:41;3.20;;;1.50;;
66371;SDS011;53168;51.146;17.120;2022-08-01T16:17:15;2.70;;;1.60;;
66371;SDS011;53168;51.146;17.120;2022-08-01T16:19:48;3.30;;;1.40;;
66371;SDS011;53168;51.146;17.120;2022-08-01T16:22:22;1.60;;;1.20;;
66371;SDS011;53168;51.146;17.120;2022-08-01T16:24:55;3.60;;;1.70;;
66371;SDS011;53168;51.146;17.120;2022-08-01T16:27:33;2.20;;;1.40;;
66371;SDS011;53168;51.146;17.120;2022-08-01T16:30:10;1.90;;;1.40;;
66371;SDS011;53168;51.146;17.120;2022-08-01T16:32:52;3.80;;;1.40;;
66371;SDS011;53168;51.146;17.120;2022-08-01T16:35:45;2.40;;;1.50;;
66371;SDS011;53168;51.146;17.120;2022-08-01T16:38:21;1.70;;;1.60;;
66371;SDS011;53168;51.146;17.120;2022-08-01T16:40:55;1.60;;;1.50;;
66371;SDS011;53168;51.146;17.120;2022-08-01T16:43:29;1.70;;;1.40;;
66371;SDS011;53168;51.146;17.120;2022-08-01T16:46:02;1.90;;;1.70;;
66371;SDS011;53168;51.146;17.120;2022-08-01T16:48:41;1.70;;;1.40;;
66371;SDS011;53168;51.146;17.120;2022-08-01T16:51:21;2.20;;;1.60;;
66371;SDS011;53168;51.146;17.120;2022-08-01T16:53:54;2.20;;;1.80;;
66371;SDS011;53168;51.146;17.120;2022-08-01T16:56:28;1.70;;;1.40;;
66371;SDS011;53168;51.146;17.120;2022-08-01T16:59:01;1.40;;;1.20;;
66371;SDS011;53168;51.146;17.120;2022-08-01T17:01:37;1.30;;;1.20;;
66371;SDS011;53168;51.146;17.120;2022-08-01T17:04:31;1.40;;;1.30;;
66371;SDS011;53168;51.146;17.120;2022-08-01T17:07:04;2.20;;;1.70;;
66371;SDS011;53168;51.146;17.120;2022-08-01T17:09:39;2.30;;;1.50;;
66371;SDS011;53168;51.146;17.120;2022-08-01T17:12:13;2.40;;;1.40;;
66371;SDS011;53168;51.146;17.120;2022-08-01T17:14:51;2.00;;;1.40;;
66371;SDS011;53168;51.146;17.120;2022-08-01T17:17:26;3.20;;;1.60;;
66371;SDS011;53168;51.146;17.120;2022-08-01T17:20:32;2.10;;;1.20;;
66371;SDS011;53168;51.146;17.120;2022-08-01T17:23:06;3.20;;;1.60;;
66371;SDS011;53168;51.146;17.120;2022-08-01T17:25:39;2.70;;;1.60;;
66371;SDS011;53168;51.146;17.120;2022-08-01T17:28:13;3.80;;;1.90;;
66371;SDS011;53168;51.146;17.120;2022-08-01T17:30:46;1.70;;;1.50;;
66371;SDS011;53168;51.146;17.120;2022-08-01T17:33:19;2.10;;;1.70;;
66371;SDS011;53168;51.146;17.120;2022-08-01T17:36:13;2.50;;;1.80;;
66371;SDS011;53168;51.146;17.120;2022-08-01T17:38:47;3.00;;;1.80;;
66371;SDS011;53168;51.146;17.120;2022-08-01T17:41:20;1.30;;;1.20;;
66371;SDS011;53168;51.146;17.120;2022-08-01T17:43:53;2.20;;;1.70;;
66371;SDS011;53168;51.146;17.120;2022-08-01T17:46:27;2.00;;;1.80;;
66371;SDS011;53168;51.146;17.120;2022-08-01T17:49:00;2.30;;;1.70;;
66371;SDS011;53168;51.146;17.120;2022-08-01T17:51:35;2.20;;;2.00;;
66371;SDS011;53168;51.146;17.120;2022-08-01T17:54:11;2.60;;;2.00;;
66371;SDS011;53168;51.146;17.120;2022-08-01T17:56:44;2.50;;;1.90;;
66371;SDS011;53168;51.146;17.120;2022-08-01T17:59:17;2.00;;;1.70;;
66371;SDS011;53168;51.146;17.120;2022-08-01T18:01:51;2.80;;;2.30;;
66371;SDS011;53168;51.146;17.120;2022-08-01T18:04:24;2.90;;;2.30;;
66371;SDS011;53168;51.146;17.120;2022-08-01T18:10:18;5.80;;;2.90;;
66371;SDS011;53168;51.146;17.120;2022-08-01T18:12:51;4.00;;;2.90;;
66371;SDS011;53168;51.146;17.120;2022-08-01T18:15:24;3.10;;;2.60;;